createdAt,value
2022-10-17T00:01:00.468Z,98061.66
2022-10-17T00:11:14.887Z,98064.56
2022-10-17T00:21:18.397Z,98074.63
2022-10-17T00:31:22.285Z,98068.56
2022-10-17T00:41:28.387Z,98075.28
2022-10-17T00:51:59.098Z,98080.97
2022-10-17T01:02:05.086Z,98074.03
2022-10-17T01:12:22.197Z,98073.66
2022-10-17T01:22:33.967Z,98066.41
2022-10-17T01:32:41.056Z,98065.19
2022-10-17T01:42:51.784Z,98060.69
2022-10-17T01:52:59.946Z,98064.13
2022-10-17T02:03:06.497Z,98066.75
2022-10-17T02:13:14.626Z,98076.50
2022-10-17T02:23:43.681Z,98072.88
2022-10-17T02:34:01.249Z,98082.19
2022-10-17T02:44:05.368Z,98096.59
2022-10-17T02:54:15.365Z,98110.38
2022-10-17T03:04:18.720Z,98110.53
2022-10-17T03:14:20.901Z,98120.13
2022-10-17T03:24:23.016Z,98128.16
2022-10-17T03:34:25.155Z,98109.25
2022-10-17T03:44:27.226Z,98117.50
2022-10-17T03:54:29.407Z,98120.22
2022-10-17T04:04:31.486Z,98118.97
2022-10-17T04:14:33.777Z,98122.94
2022-10-17T04:24:35.890Z,98130.66
2022-10-17T04:34:39.251Z,98122.97
2022-10-17T04:44:41.391Z,98129.78
2022-10-17T04:54:43.729Z,98139.88
2022-10-17T05:04:45.878Z,98135.09
2022-10-17T05:14:47.932Z,98146.13
2022-10-17T05:24:50.017Z,98150.03
2022-10-17T05:34:52.103Z,98161.91
2022-10-17T05:44:54.225Z,98160.97
2022-10-17T05:54:56.360Z,98182.66
2022-10-17T06:04:58.453Z,98176.94
2022-10-17T06:15:00.577Z,98183.47
2022-10-17T06:25:02.769Z,98191.91
2022-10-17T06:35:05.307Z,98198.78
2022-10-17T06:45:08.485Z,98204.78
2022-10-17T06:55:10.621Z,98222.56
2022-10-17T07:05:12.931Z,98230.22
2022-10-17T07:15:15.082Z,98234.13
2022-10-17T07:25:17.300Z,98233.22
2022-10-17T07:35:19.493Z,98242.09
2022-10-17T07:45:21.575Z,98246.22
2022-10-17T07:55:23.670Z,98238.81
2022-10-17T08:05:25.770Z,98232.88
2022-10-17T08:15:31.053Z,98230.13
2022-10-17T08:25:34.240Z,98233.91
2022-10-17T08:35:36.357Z,98233.13
2022-10-17T08:46:03.283Z,98229.75
2022-10-17T08:56:25.138Z,98219.81
2022-10-17T09:07:03.222Z,98215.69
2022-10-17T09:28:33.248Z,98219.53
2022-10-17T09:38:41.591Z,98207.75
2022-10-17T09:59:04.621Z,98217.56
2022-10-17T10:09:18.785Z,98207.44
2022-10-17T10:19:32.815Z,98204.22
2022-10-17T10:29:38.453Z,98201.22
2022-10-17T10:39:53.115Z,98185.13
2022-10-17T10:50:30.267Z,98174.84
2022-10-17T11:00:35.030Z,98160.00
2022-10-17T11:10:58.928Z,98166.69
2022-10-17T11:21:12.434Z,98150.75
2022-10-17T11:31:17.440Z,98139.06
2022-10-17T11:41:29.891Z,98125.22
2022-10-17T11:52:00.647Z,98125.22
2022-10-17T12:02:12.650Z,98136.03
2022-10-17T12:12:48.386Z,98135.38
2022-10-17T12:23:20.191Z,98128.72
2022-10-17T12:33:26.893Z,98122.34
2022-10-17T12:43:29.026Z,98114.84
2022-10-17T12:53:44.591Z,98108.41
2022-10-17T13:03:50.581Z,98096.09
2022-10-17T13:13:54.761Z,98106.97
2022-10-17T13:23:56.924Z,98109.19
2022-10-17T13:34:01.532Z,98087.38
2022-10-17T13:44:12.469Z,98097.09
2022-10-17T13:54:33.754Z,98078.25
2022-10-17T14:04:57.790Z,98081.75
2022-10-17T14:15:10.078Z,98077.72
2022-10-17T14:25:28.050Z,98063.78
2022-10-17T14:35:41.683Z,98073.31
2022-10-17T14:45:46.269Z,98069.28
2022-10-17T14:55:57.837Z,98072.69
2022-10-17T15:06:18.898Z,98076.53
2022-10-17T15:16:21.056Z,98087.00
2022-10-17T15:26:26.122Z,98081.81
2022-10-17T15:36:30.746Z,98081.31
2022-10-17T15:46:35.215Z,98100.38
2022-10-17T15:56:40.422Z,98104.84
2022-10-17T16:06:43.574Z,98094.44
2022-10-17T16:16:45.725Z,98093.09
2022-10-17T16:26:47.893Z,98096.00
2022-10-17T16:36:49.952Z,98074.22
2022-10-17T16:46:52.032Z,98072.88
2022-10-17T16:56:54.147Z,98074.00
2022-10-17T17:06:56.407Z,98074.66
2022-10-17T17:16:58.512Z,98061.97
2022-10-17T17:27:00.597Z,98067.25
2022-10-17T17:37:02.751Z,98074.34
2022-10-17T17:47:04.927Z,98089.28
2022-10-17T17:57:07.058Z,98085.56
2022-10-17T18:07:09.206Z,98071.16
2022-10-17T18:17:11.422Z,98060.13
2022-10-17T18:27:16.039Z,98095.31
2022-10-17T18:37:18.114Z,98080.38
2022-10-17T18:47:20.260Z,98072.50
2022-10-17T18:57:25.254Z,98075.91
2022-10-17T19:07:28.860Z,98089.66
2022-10-17T19:17:31.485Z,98106.06
2022-10-17T19:27:34.042Z,98125.16
2022-10-17T19:37:36.141Z,98124.31
2022-10-17T19:47:39.645Z,98156.34
2022-10-17T19:57:41.763Z,98156.34
2022-10-17T20:07:43.859Z,98167.44
2022-10-17T20:17:46.012Z,98155.28
2022-10-17T20:27:48.075Z,98151.19
2022-10-17T20:40:33.637Z,98145.47
2022-10-17T20:50:35.644Z,98177.84
2022-10-17T21:00:42.420Z,98174.69
2022-10-17T21:10:44.495Z,98166.41
2022-10-17T21:20:46.654Z,98171.81
2022-10-17T21:30:48.703Z,98171.56
2022-10-17T21:40:52.588Z,98173.63
2022-10-17T21:51:00.751Z,98177.34
2022-10-17T22:01:13.111Z,98173.19
2022-10-17T22:11:25.155Z,98164.72
2022-10-17T22:21:28.000Z,98174.81
2022-10-17T22:31:30.129Z,98170.19
2022-10-17T22:41:32.288Z,98178.00
2022-10-17T22:51:34.372Z,98197.81
2022-10-17T23:01:36.483Z,98208.91
2022-10-17T23:11:38.593Z,98190.28
2022-10-17T23:21:40.689Z,98201.53
2022-10-17T23:31:42.816Z,98200.38
2022-10-17T23:41:45.581Z,98195.38
2022-10-17T23:51:47.702Z,98192.44
